Time;durP1;ratioP1;P1;durP2;ratioP2;P2;SDS_P1;SDS_P2;PMS_P1;PMS_P2;Temp;Humidity;BMP_temperature;BMP_pressure;BME280_temperature;BME280_humidity;BME280_pressure;Samples;Min_cycle;Max_cycle;Signal;HPM_P1;HPM_P2
2023/11/26 00:01:18;;;;;;;8.63;2.45;;;3.20;99.90;;;;;;4989432;28;20115;-91
2023/11/26 00:03:46;;;;;;;9.20;2.47;;;3.20;99.90;;;;;;4986117;28;20025;-92
2023/11/26 00:06:12;;;;;;;9.55;2.60;;;3.20;99.90;;;;;;4988017;28;20089;-91
2023/11/26 00:08:39;;;;;;;5.13;2.45;;;3.10;99.90;;;;;;4985247;28;20037;-92
2023/11/26 00:11:05;;;;;;;6.72;2.35;;;3.20;99.90;;;;;;4989830;28;20030;-90
2023/11/26 00:13:31;;;;;;;6.35;2.45;;;3.10;99.90;;;;;;4991796;28;20097;-91
2023/11/26 00:15:56;;;;;;;5.93;2.38;;;3.10;99.90;;;;;;4991383;28;20031;-91
2023/11/26 00:18:22;;;;;;;3.35;2.03;;;3.10;99.90;;;;;;4990032;28;20173;-92
2023/11/26 00:20:47;;;;;;;6.13;2.33;;;3.00;99.90;;;;;;4987826;28;20033;-91
2023/11/26 00:23:13;;;;;;;12.10;2.78;;;3.00;99.90;;;;;;4996750;28;20073;-92
2023/11/26 00:25:41;;;;;;;3.78;2.00;;;2.90;99.90;;;;;;4985979;28;20474;-92
2023/11/26 00:28:07;;;;;;;7.47;2.22;;;2.90;99.90;;;;;;4989355;28;20096;-91
2023/11/26 00:30:35;;;;;;;5.22;2.53;;;2.90;99.90;;;;;;4988318;28;20117;-90
2023/11/26 00:33:00;;;;;;;8.10;2.58;;;2.90;99.90;;;;;;5004854;28;20037;-91
2023/11/26 00:35:26;;;;;;;7.47;2.53;;;2.90;99.90;;;;;;4991924;28;20038;-92
2023/11/26 00:37:54;;;;;;;5.38;2.40;;;2.80;99.90;;;;;;4990691;28;20026;-91
2023/11/26 00:40:25;;;;;;;6.78;2.28;;;2.80;99.90;;;;;;4986652;28;20042;-92
2023/11/26 00:42:51;;;;;;;10.18;2.95;;;3.00;99.90;;;;;;4993594;28;20034;-92
2023/11/26 00:45:17;;;;;;;8.15;2.67;;;3.00;99.90;;;;;;4993105;28;20373;-91
2023/11/26 00:47:42;;;;;;;7.78;2.85;;;2.90;99.90;;;;;;4992866;28;20038;-91
2023/11/26 00:50:08;;;;;;;5.30;2.53;;;2.80;99.90;;;;;;4974725;28;20031;-91
2023/11/26 00:52:34;;;;;;;4.90;2.65;;;2.80;99.90;;;;;;4989397;28;20081;-91
2023/11/26 00:55:00;;;;;;;6.60;2.75;;;2.90;99.90;;;;;;4984770;28;20034;-91
2023/11/26 00:57:26;;;;;;;6.15;2.53;;;2.80;99.90;;;;;;4987139;28;20110;-91
2023/11/26 00:59:52;;;;;;;9.52;2.60;;;2.90;99.90;;;;;;4975846;28;20496;-92
2023/11/26 01:02:21;;;;;;;5.15;2.72;;;2.90;99.90;;;;;;4994492;28;20026;-91
2023/11/26 01:04:47;;;;;;;6.70;2.40;;;2.80;99.90;;;;;;4989312;28;20062;-91
2023/11/26 01:07:13;;;;;;;5.43;2.17;;;2.80;99.90;;;;;;4989914;28;20185;-91
2023/11/26 01:09:39;;;;;;;9.30;2.92;;;2.90;99.90;;;;;;4987294;28;20505;-91
2023/11/26 01:12:05;;;;;;;8.25;3.00;;;2.90;99.90;;;;;;4974262;28;20038;-90
2023/11/26 01:14:31;;;;;;;7.22;2.65;;;2.80;99.90;;;;;;4974601;28;20822;-91
2023/11/26 01:16:56;;;;;;;5.85;2.00;;;3.00;99.90;;;;;;4989978;28;20038;-91
2023/11/26 01:19:24;;;;;;;10.63;2.40;;;2.80;99.90;;;;;;4991467;28;20045;-90
2023/11/26 01:21:50;;;;;;;;;;;2.70;99.90;;;;;;4973787;28;20042;-91
2023/11/26 01:24:18;;;;;;;8.73;2.53;;;3.00;99.90;;;;;;4989449;28;20403;-91
2023/11/26 01:26:44;;;;;;;6.15;2.45;;;2.90;99.90;;;;;;4988847;28;20394;-91
2023/11/26 01:29:10;;;;;;;7.40;2.72;;;2.90;99.90;;;;;;4991009;28;20043;-91
2023/11/26 01:31:35;;;;;;;7.22;2.60;;;2.90;99.90;;;;;;4990256;28;20412;-91
2023/11/26 01:34:01;;;;;;;3.25;1.77;;;2.90;99.90;;;;;;4991413;28;20037;-90
2023/11/26 01:36:29;;;;;;;5.80;2.45;;;2.90;99.90;;;;;;4988261;28;20034;-91
2023/11/26 01:38:55;;;;;;;6.72;2.15;;;3.00;99.90;;;;;;4983091;28;20026;-90
2023/11/26 01:41:20;;;;;;;7.65;2.42;;;3.00;99.90;;;;;;4989168;28;20018;-91
2023/11/26 01:43:46;;;;;;;3.50;1.90;;;3.10;99.90;;;;;;4990983;28;20030;-91
2023/11/26 01:46:13;;;;;;;9.48;2.10;;;3.10;99.90;;;;;;4989667;28;20053;-90
2023/11/26 01:48:39;;;;;;;6.40;2.00;;;3.20;99.90;;;;;;4998532;28;20121;-91
2023/11/26 01:51:11;;;;;;;7.88;2.40;;;3.10;99.90;;;;;;4968203;28;20077;-91
2023/11/26 01:53:41;;;;;;;5.45;2.30;;;3.10;99.90;;;;;;4995170;28;20456;-90
2023/11/26 01:56:07;;;;;;;6.60;2.15;;;3.30;99.90;;;;;;4985814;28;20030;-90
2023/11/26 01:58:36;;;;;;;8.05;2.08;;;3.10;99.90;;;;;;4985685;28;20401;-92
2023/11/26 02:01:02;;;;;;;7.53;2.47;;;3.00;99.90;;;;;;4987976;28;20031;-91
2023/11/26 02:03:30;;;;;;;2.75;1.80;;;3.00;99.90;;;;;;4984356;28;20037;-92
2023/11/26 02:05:56;;;;;;;10.40;2.50;;;2.90;99.90;;;;;;4982680;28;20042;-90
2023/11/26 02:08:24;;;;;;;9.00;2.88;;;2.90;99.90;;;;;;4985486;28;20088;-90
2023/11/26 02:10:52;;;;;;;4.93;2.50;;;2.90;99.90;;;;;;4989227;28;20022;-91
2023/11/26 02:13:21;;;;;;;5.53;2.50;;;2.90;99.90;;;;;;4990664;28;20049;-90
2023/11/26 02:15:46;;;;;;;6.65;2.40;;;2.90;99.90;;;;;;4989153;28;20035;-90
2023/11/26 02:18:12;;;;;;;4.13;2.20;;;2.80;99.90;;;;;;4985211;28;20086;-91
2023/11/26 02:20:38;;;;;;;3.20;2.08;;;2.80;99.90;;;;;;4984751;28;20042;-89
2023/11/26 02:23:06;;;;;;;7.15;2.22;;;2.80;99.90;;;;;;4984247;28;20470;-91
2023/11/26 02:25:34;;;;;;;12.88;2.08;;;2.80;99.90;;;;;;4984823;28;20461;-89
2023/11/26 02:27:59;;;;;;;;;;;2.90;99.90;;;;;;4987012;28;20214;-90
2023/11/26 02:30:25;;;;;;;7.55;2.63;;;3.00;99.90;;;;;;4986085;28;19990;-91
2023/11/26 02:32:52;;;;;;;5.30;2.17;;;3.10;99.90;;;;;;4987482;28;20255;-90
2023/11/26 02:35:22;;;;;;;4.03;2.15;;;3.20;99.90;;;;;;4988256;28;20039;-91
2023/11/26 02:37:47;;;;;;;6.45;3.35;;;3.00;99.90;;;;;;4985894;28;20031;-89
2023/11/26 02:40:16;;;;;;;5.28;2.47;;;2.90;99.90;;;;;;4981694;28;20058;-90
2023/11/26 02:42:43;;;;;;;4.50;1.88;;;2.90;99.90;;;;;;4976892;28;20034;-91
2023/11/26 02:45:09;;;;;;;4.15;2.15;;;2.90;99.90;;;;;;4972303;28;20488;-91
2023/11/26 02:47:35;;;;;;;6.22;2.20;;;2.80;99.90;;;;;;4990071;28;20030;-91
2023/11/26 02:50:04;;;;;;;11.82;2.50;;;3.00;99.90;;;;;;4991148;28;20564;-90
2023/11/26 02:52:32;;;;;;;4.85;2.53;;;3.10;99.90;;;;;;4992296;28;20139;-90
2023/11/26 02:54:57;;;;;;;8.13;2.90;;;3.00;99.90;;;;;;4988379;28;20124;-91
2023/11/26 02:57:24;;;;;;;6.53;2.30;;;3.10;99.90;;;;;;4988236;28;20066;-90
2023/11/26 02:59:50;;;;;;;5.57;2.45;;;3.10;99.90;;;;;;4988100;28;20754;-91
2023/11/26 03:02:16;;;;;;;4.72;2.60;;;3.20;99.90;;;;;;4975120;28;20030;-91
2023/11/26 03:04:47;;;;;;;12.00;2.58;;;3.20;99.90;;;;;;4988301;28;20034;-90
2023/11/26 03:07:16;;;;;;;9.15;2.28;;;3.30;99.90;;;;;;4993672;28;20022;-91
2023/11/26 03:15:14;;;;;;;5.03;2.45;;;2.90;99.90;;;;;;4973931;28;20129;-91
2023/11/26 03:17:40;;;;;;;3.80;2.40;;;3.00;99.90;;;;;;4992166;28;20084;-91
2023/11/26 03:20:06;;;;;;;6.72;2.38;;;3.00;99.90;;;;;;4993610;28;20038;-90
2023/11/26 03:22:32;;;;;;;10.20;2.53;;;3.10;99.90;;;;;;4995011;28;20567;-90
2023/11/26 03:24:58;;;;;;;9.57;2.83;;;3.10;99.90;;;;;;4992237;28;20438;-90
2023/11/26 03:27:23;;;;;;;8.32;2.58;;;3.10;99.90;;;;;;4991664;28;20038;-89
2023/11/26 03:29:51;;;;;;;3.67;2.10;;;3.00;99.90;;;;;;4993275;28;20038;-91
2023/11/26 03:32:17;;;;;;;5.18;2.30;;;3.10;99.90;;;;;;4990730;28;20600;-90
2023/11/26 03:34:42;;;;;;;5.07;2.25;;;3.10;99.90;;;;;;4989892;28;20089;-91
2023/11/26 03:37:08;;;;;;;6.40;2.53;;;3.10;99.90;;;;;;4996475;28;20505;-90
2023/11/26 03:39:40;;;;;;;8.38;2.17;;;3.00;99.90;;;;;;4985835;28;20081;-90
2023/11/26 03:42:08;;;;;;;6.32;2.58;;;3.30;99.90;;;;;;4990501;28;20018;-90
2023/11/26 03:44:33;;;;;;;;;;;3.20;99.90;;;;;;4989315;28;20037;-92
2023/11/26 03:46:59;;;;;;;3.45;2.22;;;3.10;99.90;;;;;;4990210;28;19910;-90
2023/11/26 03:49:25;;;;;;;7.30;2.35;;;3.10;99.90;;;;;;4990277;28;20732;-90
2023/11/26 03:51:50;;;;;;;8.98;2.40;;;3.10;99.90;;;;;;4989785;28;20077;-91
2023/11/26 03:54:16;;;;;;;5.32;2.03;;;3.20;99.90;;;;;;4992073;28;20030;-91
2023/11/26 03:56:41;;;;;;;8.73;2.67;;;3.30;99.90;;;;;;4989244;28;20045;-90
2023/11/26 03:59:07;;;;;;;4.65;2.22;;;3.40;99.90;;;;;;4989828;28;20031;-90
2023/11/26 04:01:35;;;;;;;5.22;2.08;;;3.40;99.90;;;;;;4989054;28;20049;-91
2023/11/26 04:04:04;;;;;;;5.80;1.92;;;3.40;99.90;;;;;;4990498;28;20031;-93
2023/11/26 04:06:30;;;;;;;3.88;2.35;;;3.50;99.90;;;;;;4983037;28;20102;-90
2023/11/26 04:08:58;;;;;;;5.93;2.33;;;3.60;99.90;;;;;;4989245;28;20037;-90
2023/11/26 04:11:23;;;;;;;3.85;2.33;;;3.50;99.90;;;;;;4992427;28;20105;-90
2023/11/26 04:13:49;;;;;;;4.93;2.22;;;3.50;99.90;;;;;;4990514;28;20478;-90
2023/11/26 04:16:18;;;;;;;5.25;2.03;;;3.50;99.90;;;;;;4986157;28;20043;-89
2023/11/26 04:18:46;;;;;;;4.85;2.40;;;3.60;99.90;;;;;;4988975;28;20046;-90
2023/11/26 04:21:12;;;;;;;7.30;2.00;;;3.50;99.90;;;;;;4980679;28;20118;-91
2023/11/26 04:23:40;;;;;;;5.15;2.45;;;3.50;99.90;;;;;;4989025;28;20471;-91
2023/11/26 04:26:09;;;;;;;4.28;2.00;;;3.40;99.90;;;;;;4988954;28;20018;-90
2023/11/26 04:28:35;;;;;;;4.93;2.35;;;3.40;99.90;;;;;;4988480;28;20030;-91
2023/11/26 04:31:02;;;;;;;5.28;2.10;;;3.40;99.90;;;;;;4993417;28;20038;-90
2023/11/26 04:33:28;;;;;;;4.80;2.58;;;3.50;99.90;;;;;;4973832;28;20030;-91
2023/11/26 04:35:56;;;;;;;8.20;2.72;;;3.50;99.90;;;;;;4987648;28;20038;-91
2023/11/26 04:38:21;;;;;;;;;;;3.50;99.90;;;;;;4990023;28;20174;-90
2023/11/26 04:40:47;;;;;;;4.60;2.35;;;3.50;99.90;;;;;;4990437;28;20015;-91
2023/11/26 04:43:12;;;;;;;5.82;2.72;;;3.50;99.90;;;;;;4985314;28;20038;-91
2023/11/26 04:45:38;;;;;;;4.70;2.03;;;3.40;99.90;;;;;;4987969;28;20035;-91
2023/11/26 04:48:04;;;;;;;8.75;2.60;;;3.40;99.90;;;;;;4987980;28;20685;-90
2023/11/26 04:50:31;;;;;;;5.82;2.60;;;3.50;99.90;;;;;;4989987;28;20033;-91
2023/11/26 04:52:59;;;;;;;4.97;2.55;;;3.40;99.90;;;;;;4989883;28;20097;-91
2023/11/26 04:55:25;;;;;;;4.72;2.33;;;3.50;99.90;;;;;;4984625;28;20113;-91
2023/11/26 04:57:50;;;;;;;7.93;2.88;;;3.50;99.90;;;;;;5001550;28;20126;-89
2023/11/26 05:00:21;;;;;;;7.35;2.97;;;3.20;99.90;;;;;;4990188;28;20028;-91
2023/11/26 05:02:50;;;;;;;6.75;2.50;;;3.30;99.90;;;;;;5002392;28;20030;-90
2023/11/26 05:05:18;;;;;;;9.27;3.05;;;3.30;99.90;;;;;;4988878;28;20034;-90
2023/11/26 05:07:43;;;;;;;6.18;2.67;;;3.30;99.90;;;;;;4988015;28;20026;-91
2023/11/26 05:10:09;;;;;;;8.38;3.17;;;3.50;99.90;;;;;;4988754;28;20538;-91
2023/11/26 05:12:35;;;;;;;3.38;2.45;;;3.40;99.90;;;;;;4976111;28;20049;-90
2023/11/26 05:15:04;;;;;;;5.93;2.33;;;3.30;99.90;;;;;;4988366;28;20515;-91
2023/11/26 05:17:29;;;;;;;5.65;3.20;;;3.30;99.90;;;;;;5002076;28;20050;-88
2023/11/26 05:19:57;;;;;;;7.60;2.42;;;3.30;99.90;;;;;;4992181;28;20506;-91
2023/11/26 05:22:23;;;;;;;9.40;3.10;;;3.50;99.90;;;;;;4988550;28;20034;-90
2023/11/26 05:24:51;;;;;;;7.55;2.47;;;3.50;99.90;;;;;;4988075;28;20048;-91
2023/11/26 05:27:19;;;;;;;;;;;3.40;99.90;;;;;;4989912;28;20515;-90
2023/11/26 05:29:44;;;;;;;6.43;2.72;;;3.40;99.90;;;;;;4988918;28;19921;-90
2023/11/26 05:32:10;;;;;;;6.50;2.67;;;3.40;99.90;;;;;;4992272;28;20022;-91
2023/11/26 05:34:36;;;;;;;7.15;2.63;;;3.50;99.90;;;;;;4989520;28;20038;-90
2023/11/26 05:37:03;;;;;;;7.32;2.55;;;3.60;99.90;;;;;;4986514;28;20046;-91
2023/11/26 05:39:33;;;;;;;5.30;2.80;;;3.60;99.90;;;;;;4987065;28;20118;-91
2023/11/26 05:41:59;;;;;;;5.63;2.63;;;3.70;99.90;;;;;;4982659;28;20035;-90
2023/11/26 05:44:24;;;;;;;5.40;2.97;;;3.70;99.90;;;;;;4987329;28;20069;-91
2023/11/26 05:46:50;;;;;;;9.55;2.95;;;3.80;99.90;;;;;;4986096;28;20038;-89
2023/11/26 05:49:15;;;;;;;3.78;2.25;;;3.60;99.90;;;;;;4986574;28;20026;-90
2023/11/26 05:51:41;;;;;;;7.38;2.60;;;3.70;99.90;;;;;;4991264;28;20034;-90
2023/11/26 05:54:09;;;;;;;5.72;2.53;;;3.80;99.90;;;;;;4972706;28;20034;-91
2023/11/26 05:56:44;;;;;;;5.05;2.70;;;3.70;99.90;;;;;;4988836;28;20027;-88
2023/11/26 05:59:10;;;;;;;10.20;3.17;;;3.70;99.90;;;;;;4989128;28;20033;-91
2023/11/26 06:01:36;;;;;;;5.82;2.63;;;3.70;99.90;;;;;;4986782;28;20039;-89
2023/11/26 06:04:02;;;;;;;6.93;2.88;;;3.60;99.90;;;;;;4990390;28;20026;-91
2023/11/26 06:06:28;;;;;;;9.25;3.00;;;3.50;99.90;;;;;;4987491;28;20121;-91
2023/11/26 06:08:53;;;;;;;10.90;3.28;;;3.50;99.90;;;;;;4987380;28;20058;-91
2023/11/26 06:11:19;;;;;;;6.35;3.10;;;3.60;99.90;;;;;;4989246;28;20461;-91
2023/11/26 06:13:44;;;;;;;4.15;2.58;;;3.60;99.90;;;;;;4987299;28;20041;-91
2023/11/26 06:16:10;;;;;;;7.85;3.03;;;3.60;99.90;;;;;;4970226;28;20529;-91
2023/11/26 06:18:37;;;;;;;6.30;3.50;;;3.50;99.90;;;;;;4991200;28;20498;-91
2023/11/26 06:21:07;;;;;;;8.02;3.00;;;3.40;99.90;;;;;;4982288;28;20057;-90
2023/11/26 06:23:32;;;;;;;6.22;3.00;;;3.50;99.90;;;;;;4985193;28;20383;-90
2023/11/26 06:25:59;;;;;;;9.20;3.20;;;3.50;99.90;;;;;;4991976;28;20034;-90
2023/11/26 06:28:25;;;;;;;8.00;2.97;;;3.40;99.90;;;;;;4992996;28;21505;-90
2023/11/26 06:30:51;;;;;;;5.65;2.63;;;3.50;99.90;;;;;;4992855;28;20033;-90
2023/11/26 06:33:16;;;;;;;8.70;3.13;;;3.60;99.90;;;;;;4992724;28;20490;-91
2023/11/26 06:35:43;;;;;;;6.00;3.03;;;3.60;99.90;;;;;;4992542;28;20072;-91
2023/11/26 06:38:09;;;;;;;6.07;3.00;;;3.60;99.90;;;;;;4978897;28;20038;-91
2023/11/26 06:40:37;;;;;;;7.70;2.50;;;3.60;99.90;;;;;;4991361;28;20092;-90
2023/11/26 06:43:02;;;;;;;5.13;3.28;;;3.60;99.90;;;;;;4975525;28;20027;-89
2023/11/26 06:45:28;;;;;;;5.53;3.13;;;3.60;99.90;;;;;;4992599;28;20041;-91
2023/11/26 06:47:54;;;;;;;5.18;2.70;;;3.50;99.90;;;;;;4980048;28;20030;-91
2023/11/26 06:50:21;;;;;;;6.00;2.78;;;3.50;99.90;;;;;;4973829;28;20034;-90
2023/11/26 06:52:47;;;;;;;5.63;2.58;;;3.50;99.90;;;;;;4990502;28;20018;-90
2023/11/26 06:55:15;;;;;;;6.55;3.10;;;3.50;99.90;;;;;;4981206;28;20048;-92
2023/11/26 06:57:41;;;;;;;6.40;3.03;;;3.40;99.90;;;;;;4982272;28;20040;-92
2023/11/26 07:00:07;;;;;;;6.90;2.75;;;3.40;99.90;;;;;;4983112;28;20030;-91
2023/11/26 07:02:32;;;;;;;5.47;2.60;;;3.40;99.90;;;;;;4995854;28;20502;-93
2023/11/26 07:05:00;;;;;;;12.30;3.17;;;3.50;99.90;;;;;;4997120;28;20041;-92
2023/11/26 07:07:25;;;;;;;8.00;3.20;;;3.20;99.90;;;;;;4997901;28;20031;-91
2023/11/26 07:09:53;;;;;;;12.85;3.10;;;3.20;99.90;;;;;;4984536;28;20081;-92
2023/11/26 07:12:19;;;;;;;;;;;3.20;99.90;;;;;;5002819;28;20022;-91
2023/11/26 07:14:47;;;;;;;9.57;3.67;;;3.30;99.90;;;;;;4998549;28;20419;-93
2023/11/26 07:17:12;;;;;;;8.60;3.08;;;3.30;99.90;;;;;;5001097;28;20218;-93
2023/11/26 07:19:42;;;;;;;8.85;3.53;;;3.30;99.90;;;;;;4983062;28;20043;-93
2023/11/26 07:22:08;;;;;;;4.97;3.33;;;3.50;99.90;;;;;;5003619;28;20035;-92
2023/11/26 07:24:36;;;;;;;7.20;3.65;;;3.50;99.90;;;;;;4998612;28;20045;-92
2023/11/26 07:27:01;;;;;;;;;;;3.50;99.90;;;;;;5003101;28;20309;-92
2023/11/26 07:29:27;;;;;;;5.88;2.92;;;3.50;99.90;;;;;;4979965;28;20496;-93
2023/11/26 07:31:52;;;;;;;6.05;2.88;;;3.70;99.90;;;;;;4996537;28;20038;-92
2023/11/26 07:34:21;;;;;;;7.65;2.95;;;3.70;99.90;;;;;;4996031;28;20031;-90
2023/11/26 07:36:51;;;;;;;8.48;3.45;;;3.70;99.90;;;;;;4996367;28;20035;-92
2023/11/26 07:39:16;;;;;;;7.75;3.30;;;3.90;99.90;;;;;;4995507;28;20062;-92
2023/11/26 07:41:46;;;;;;;7.53;3.33;;;3.70;99.90;;;;;;4996244;28;20030;-92
2023/11/26 07:44:13;;;;;;;10.98;3.55;;;3.70;99.90;;;;;;4995830;28;20034;-90
2023/11/26 07:46:40;;;;;;;6.10;3.28;;;3.60;99.90;;;;;;4992261;28;20520;-92
2023/11/26 07:49:06;;;;;;;14.68;3.63;;;3.80;99.90;;;;;;4996152;28;20030;-91
2023/11/26 07:51:36;;;;;;;11.57;3.13;;;3.70;99.90;;;;;;4994316;28;20030;-92
2023/11/26 07:54:02;;;;;;;8.07;3.70;;;3.90;99.90;;;;;;4996675;28;20100;-92
2023/11/26 07:56:28;;;;;;;7.00;3.60;;;3.90;99.90;;;;;;4976560;28;20038;-92
2023/11/26 07:58:53;;;;;;;9.63;3.90;;;4.00;99.90;;;;;;4992945;28;20032;-92
2023/11/26 08:01:20;;;;;;;10.43;3.80;;;3.80;99.90;;;;;;4992721;28;20406;-92
2023/11/26 08:03:45;;;;;;;7.85;3.85;;;3.90;99.90;;;;;;4995766;28;20033;-92
2023/11/26 08:06:12;;;;;;;5.50;3.20;;;4.10;99.90;;;;;;4994290;28;20035;-91
2023/11/26 08:08:40;;;;;;;9.33;3.90;;;4.10;99.90;;;;;;4990888;28;20030;-91
2023/11/26 08:11:12;;;;;;;6.75;3.38;;;4.20;99.90;;;;;;4974621;28;20057;-89
2023/11/26 08:13:41;;;;;;;6.82;3.40;;;4.30;99.90;;;;;;4992554;28;20026;-92
2023/11/26 08:16:13;;;;;;;11.38;3.60;;;4.30;99.90;;;;;;4987587;28;20030;-92
2023/11/26 08:18:45;;;;;;;11.00;3.90;;;4.40;99.90;;;;;;4993230;28;20038;-93
2023/11/26 08:21:14;;;;;;;6.78;3.25;;;4.50;99.90;;;;;;4991880;28;20030;-91
2023/11/26 08:23:50;;;;;;;8.25;3.80;;;4.40;99.90;;;;;;4995040;28;20035;-92
2023/11/26 08:26:22;;;;;;;6.90;3.90;;;4.30;99.90;;;;;;4981347;28;20647;-92
2023/11/26 08:28:48;;;;;;;13.88;4.53;;;4.40;99.90;;;;;;4996044;28;20026;-92
2023/11/26 08:31:16;;;;;;;17.88;4.43;;;4.40;99.90;;;;;;4998273;28;20064;-92
2023/11/26 08:33:44;;;;;;;12.35;4.63;;;4.30;99.90;;;;;;4995383;28;20037;-93
2023/11/26 08:36:15;;;;;;;7.65;3.78;;;4.30;99.90;;;;;;4998013;28;20053;-93
2023/11/26 08:38:41;;;;;;;11.20;4.22;;;4.40;99.90;;;;;;4997109;28;20034;-92
2023/11/26 08:41:11;;;;;;;9.75;4.20;;;4.50;99.90;;;;;;4997516;28;20030;-92
2023/11/26 08:43:41;;;;;;;10.95;3.78;;;4.40;99.90;;;;;;5009105;28;20026;-92
2023/11/26 08:46:12;;;;;;;9.20;3.83;;;4.60;99.90;;;;;;4983203;28;20034;-92
2023/11/26 08:48:41;;;;;;;7.10;3.45;;;4.60;99.90;;;;;;5014700;28;20074;-93
2023/11/26 08:51:06;;;;;;;9.70;4.00;;;4.70;99.90;;;;;;5000555;28;20015;-92
2023/11/26 08:53:34;;;;;;;9.52;3.92;;;4.70;99.90;;;;;;4999188;28;20040;-91
2023/11/26 08:56:03;;;;;;;6.55;3.42;;;4.60;99.90;;;;;;4998234;28;20038;-92
2023/11/26 08:58:30;;;;;;;7.13;3.90;;;4.60;99.90;;;;;;4991783;28;20113;-92
2023/11/26 09:01:01;;;;;;;9.98;3.80;;;4.60;99.90;;;;;;4991102;28;20631;-92
2023/11/26 09:03:27;;;;;;;8.65;4.05;;;4.70;99.90;;;;;;4990478;28;20030;-92
2023/11/26 09:05:53;;;;;;;14.90;4.13;;;4.70;99.90;;;;;;4992596;28;20027;-92
2023/11/26 09:08:21;;;;;;;8.35;4.03;;;4.70;99.90;;;;;;4976940;28;20031;-93
2023/11/26 09:10:49;;;;;;;6.20;3.50;;;4.80;99.90;;;;;;4984361;28;20225;-93
2023/11/26 09:13:17;;;;;;;8.90;4.50;;;4.90;99.90;;;;;;4988187;28;20416;-92
2023/11/26 09:15:43;;;;;;;6.85;3.67;;;4.90;99.90;;;;;;4992430;28;20036;-92
2023/11/26 09:18:09;;;;;;;11.60;4.38;;;5.00;99.90;;;;;;4991841;28;20057;-92
2023/11/26 09:20:36;;;;;;;11.60;4.30;;;5.10;99.90;;;;;;4990582;28;20482;-93
2023/11/26 09:23:03;;;;;;;12.65;4.68;;;5.00;99.90;;;;;;4991920;28;20037;-93
2023/11/26 09:25:29;;;;;;;7.43;4.18;;;5.10;99.90;;;;;;4989819;28;20077;-93
2023/11/26 09:27:58;;;;;;;9.38;4.45;;;5.00;99.90;;;;;;5011310;28;20057;-92
2023/11/26 09:30:24;;;;;;;11.63;4.68;;;4.90;99.90;;;;;;4992059;28;20038;-92
2023/11/26 09:32:50;;;;;;;7.43;4.57;;;5.00;99.90;;;;;;4993021;28;20033;-93
2023/11/26 09:35:19;;;;;;;15.30;5.53;;;5.00;99.90;;;;;;4989333;28;20117;-93
2023/11/26 09:37:44;;;;;;;8.93;4.57;;;5.00;99.90;;;;;;4993950;28;20117;-93
2023/11/26 09:40:11;;;;;;;12.57;4.88;;;4.90;99.90;;;;;;4988931;28;20050;-92
2023/11/26 09:42:36;;;;;;;12.48;4.97;;;5.00;99.90;;;;;;4985693;28;20034;-92
2023/11/26 09:45:05;;;;;;;10.27;4.43;;;5.10;99.90;;;;;;4989671;28;20473;-92
2023/11/26 09:47:30;;;;;;;10.77;4.60;;;4.90;99.90;;;;;;4990757;28;20027;-92
2023/11/26 09:49:56;;;;;;;8.52;4.32;;;5.10;99.90;;;;;;4990790;28;20117;-91
2023/11/26 09:52:26;;;;;;;13.80;5.10;;;5.20;99.90;;;;;;4988661;28;20035;-91
2023/11/26 09:54:55;;;;;;;10.40;4.65;;;5.20;99.90;;;;;;4991771;28;20076;-92
2023/11/26 09:57:21;;;;;;;12.63;4.95;;;5.20;99.90;;;;;;4987391;28;20723;-92
2023/11/26 09:59:46;;;;;;;13.07;5.15;;;5.10;99.90;;;;;;4987899;28;20061;-91
2023/11/26 10:02:15;;;;;;;12.13;5.13;;;5.20;99.90;;;;;;4986194;28;20081;-90
2023/11/26 10:04:52;;;;;;;9.23;4.53;;;5.30;99.90;;;;;;4989416;28;20037;-93
2023/11/26 10:07:40;;;;;;;12.63;5.07;;;5.40;99.90;;;;;;4984316;28;20561;-90
2023/11/26 10:10:09;;;;;;;9.57;4.78;;;5.40;99.90;;;;;;4989913;28;20027;-91
2023/11/26 10:12:54;;;;;;;9.05;4.13;;;5.40;99.90;;;;;;4990664;28;20031;-92
2023/11/26 10:15:26;;;;;;;13.50;4.80;;;5.40;99.90;;;;;;4994095;28;20019;-91
2023/11/26 10:18:06;;;;;;;10.05;5.10;;;5.50;99.90;;;;;;4987427;28;20085;-92
2023/11/26 10:20:39;;;;;;;13.15;5.30;;;5.40;99.90;;;;;;4989863;28;20038;-91
2023/11/26 10:23:10;;;;;;;9.23;4.68;;;5.30;99.90;;;;;;4987816;28;20026;-91
2023/11/26 10:25:44;;;;;;;10.75;5.68;;;5.30;99.90;;;;;;4991109;28;20038;-92
2023/11/26 10:28:19;;;;;;;11.50;4.97;;;5.40;99.90;;;;;;4986651;28;20037;-92
2023/11/26 10:30:44;;;;;;;10.40;5.40;;;5.50;99.90;;;;;;4989067;28;20054;-91
2023/11/26 10:33:11;;;;;;;10.68;5.25;;;5.50;99.90;;;;;;4983721;28;20031;-91
2023/11/26 10:35:48;;;;;;;15.73;5.53;;;5.40;99.90;;;;;;4979253;28;20035;-92
2023/11/26 10:38:19;;;;;;;11.95;5.75;;;5.40;99.90;;;;;;4989721;28;20035;-92
2023/11/26 10:40:46;;;;;;;13.30;5.60;;;5.40;99.90;;;;;;4986223;28;20070;-91
2023/11/26 10:43:12;;;;;;;8.98;5.10;;;5.60;99.90;;;;;;4989435;28;20081;-91
2023/11/26 10:45:39;;;;;;;10.43;5.32;;;5.70;99.90;;;;;;4987199;28;20034;-91
2023/11/26 10:48:10;;;;;;;9.43;4.87;;;5.70;99.90;;;;;;4987434;28;20045;-91
2023/11/26 10:50:42;;;;;;;9.50;4.60;;;5.80;99.90;;;;;;4988220;28;20037;-91
2023/11/26 10:53:21;;;;;;;10.45;4.72;;;5.80;99.90;;;;;;4988626;28;20026;-92
2023/11/26 10:55:50;;;;;;;9.27;4.40;;;5.80;99.90;;;;;;5000354;28;20123;-90
2023/11/26 10:58:22;;;;;;;15.80;5.32;;;5.80;99.90;;;;;;4988101;28;20033;-91
2023/11/26 11:00:51;;;;;;;11.70;4.10;;;6.00;99.90;;;;;;4988979;28;20038;-91
2023/11/26 11:03:19;;;;;;;8.77;4.78;;;6.00;99.90;;;;;;4992380;28;20077;-92
2023/11/26 11:05:47;;;;;;;;;;;6.00;99.90;;;;;;4990708;28;20022;-92
2023/11/26 11:08:17;;;;;;;32.75;16.00;;;5.90;99.90;;;;;;4988450;28;19910;-89
2023/11/26 11:10:52;;;;;;;19.13;9.35;;;5.90;99.90;;;;;;4990463;28;20030;-92
2023/11/26 11:13:20;;;;;;;24.80;10.75;;;6.00;99.90;;;;;;4987455;28;20026;-92
2023/11/26 11:15:47;;;;;;;11.23;4.85;;;5.90;99.90;;;;;;4998484;28;20122;-92
2023/11/26 11:18:28;;;;;;;6.97;3.60;;;6.00;99.90;;;;;;4990329;28;20126;-92
2023/11/26 11:21:13;;;;;;;6.88;2.95;;;6.10;99.90;;;;;;5006453;28;20034;-91
2023/11/26 11:23:49;;;;;;;7.25;3.15;;;5.90;99.90;;;;;;5005164;28;20034;-91
2023/11/26 11:26:17;;;;;;;7.20;3.20;;;5.80;99.90;;;;;;4985090;28;20026;-91
2023/11/26 11:28:43;;;;;;;4.05;2.60;;;6.00;99.90;;;;;;4989565;28;20472;-91
2023/11/26 11:31:14;;;;;;;6.82;3.10;;;5.90;99.90;;;;;;4990708;28;20030;-91
2023/11/26 11:34:00;;;;;;;8.15;3.22;;;6.00;99.90;;;;;;4991537;28;20023;-89
2023/11/26 11:36:41;;;;;;;5.55;2.92;;;6.10;99.90;;;;;;5006693;28;20065;-92
2023/11/26 11:39:13;;;;;;;5.20;2.47;;;6.00;99.90;;;;;;5005475;28;20031;-93
2023/11/26 11:41:59;;;;;;;3.20;2.20;;;5.90;99.90;;;;;;4992339;28;20030;-91
2023/11/26 11:44:36;;;;;;;8.30;2.97;;;5.80;99.90;;;;;;4988026;28;20146;-91
2023/11/26 11:47:02;;;;;;;4.53;2.47;;;5.80;99.90;;;;;;4990909;28;21226;-90
2023/11/26 11:49:51;;;;;;;7.82;3.47;;;5.70;99.90;;;;;;5006770;28;20024;-91
2023/11/26 11:52:17;;;;;;;8.43;3.53;;;5.90;99.90;;;;;;5007088;28;20036;-92
2023/11/26 11:54:57;;;;;;;4.60;2.95;;;5.80;99.90;;;;;;4994357;28;20031;-92
2023/11/26 11:57:27;;;;;;;6.43;2.92;;;5.90;99.90;;;;;;4987199;28;20117;-91
2023/11/26 11:59:55;;;;;;;5.38;3.03;;;5.90;99.90;;;;;;4995358;28;20041;-93
2023/11/26 12:02:26;;;;;;;5.53;3.17;;;6.10;99.90;;;;;;4992110;28;20039;-92
2023/11/26 12:04:52;;;;;;;9.68;3.40;;;6.00;99.90;;;;;;4996008;28;20915;-91
2023/11/26 12:07:23;;;;;;;15.00;3.50;;;6.10;99.90;;;;;;4993587;28;20034;-91
2023/11/26 12:09:52;;;;;;;7.30;3.20;;;6.00;99.90;;;;;;4991836;28;20057;-91
2023/11/26 12:12:20;;;;;;;6.30;3.15;;;6.10;99.90;;;;;;4991484;28;20050;-92
2023/11/26 12:14:48;;;;;;;5.88;3.10;;;6.10;99.90;;;;;;4993747;28;20092;-91
2023/11/26 12:17:16;;;;;;;6.90;3.08;;;6.20;99.90;;;;;;4993589;28;21374;-92
2023/11/26 12:19:43;;;;;;;8.43;3.28;;;6.20;99.90;;;;;;4993676;28;20039;-90
2023/11/26 12:22:10;;;;;;;9.10;3.28;;;6.10;99.90;;;;;;5015569;28;20405;-92
2023/11/26 12:24:38;;;;;;;6.70;3.67;;;6.10;99.90;;;;;;4997997;28;20038;-92
2023/11/26 12:27:05;;;;;;;7.82;4.00;;;6.00;99.90;;;;;;4989498;28;20027;-92
2023/11/26 12:29:32;;;;;;;9.32;4.45;;;6.10;99.90;;;;;;4990748;28;20040;-90
2023/11/26 12:32:05;;;;;;;8.02;4.03;;;6.20;99.90;;;;;;4991510;28;20078;-93
2023/11/26 12:34:38;;;;;;;6.53;3.70;;;6.10;99.90;;;;;;4988609;28;20045;-93
2023/11/26 12:37:07;;;;;;;7.55;3.75;;;6.10;99.90;;;;;;4993679;28;20090;-93
2023/11/26 12:39:35;;;;;;;6.88;3.72;;;6.10;99.90;;;;;;5005722;28;20029;-93
2023/11/26 12:42:01;;;;;;;7.75;4.30;;;6.10;99.90;;;;;;4985572;28;20027;-93
2023/11/26 12:44:26;;;;;;;7.75;4.28;;;6.10;99.90;;;;;;4992683;28;20099;-93
2023/11/26 12:47:10;;;;;;;6.60;4.07;;;6.30;99.90;;;;;;4991325;28;20426;-93
2023/11/26 12:49:40;;;;;;;7.55;3.85;;;6.50;99.90;;;;;;4972866;28;20042;-92
2023/11/26 12:52:10;;;;;;;7.78;4.55;;;6.30;99.90;;;;;;4989318;28;20031;-92
2023/11/26 12:54:38;;;;;;;8.15;4.57;;;6.40;99.90;;;;;;4991176;28;20033;-93
2023/11/26 12:57:04;;;;;;;12.13;4.88;;;6.40;99.90;;;;;;4991512;28;20014;-94
2023/11/26 12:59:45;;;;;;;12.05;5.57;;;6.40;99.90;;;;;;4988789;28;20651;-93
2023/11/26 13:02:14;;;;;;;10.30;5.35;;;6.30;99.90;;;;;;4989055;28;20481;-92
2023/11/26 13:04:41;;;;;;;12.77;5.10;;;6.30;99.90;;;;;;5002903;28;20034;-92
2023/11/26 13:07:09;;;;;;;8.90;4.80;;;6.30;99.90;;;;;;4989725;28;20061;-93